Time;durP1;ratioP1;P1;durP2;ratioP2;P2;SDS_P1;SDS_P2;PMS_P1;PMS_P2;Temp;Humidity;BMP_temperature;BMP_pressure;BME280_temperature;BME280_humidity;BME280_pressure;Samples;Min_cycle;Max_cycle;Signal;HPM_P1;HPM_P2
2022/01/29 00:00:51;;;;;;;1.50;1.00;;;1.70;99.90;;;;;;5012961;28;20182;-52
2022/01/29 00:03:17;;;;;;;1.97;1.20;;;1.70;99.90;;;;;;5012702;28;20187;-49
2022/01/29 00:05:42;;;;;;;2.77;1.23;;;1.60;99.90;;;;;;5013318;28;20261;-55
2022/01/29 00:08:08;;;;;;;3.20;1.33;;;1.60;99.90;;;;;;5012663;28;20211;-60
2022/01/29 00:10:34;;;;;;;2.03;1.30;;;1.60;99.90;;;;;;5012780;28;20190;-53
2022/01/29 00:13:00;;;;;;;3.07;1.33;;;1.60;99.90;;;;;;5011453;28;20245;-52
2022/01/29 00:15:25;;;;;;;2.07;1.17;;;1.60;99.90;;;;;;4975973;28;20728;-50
2022/01/29 00:17:51;;;;;;;3.30;1.30;;;1.60;99.90;;;;;;4993197;28;20191;-50
2022/01/29 00:20:17;;;;;;;2.97;1.30;;;1.60;99.90;;;;;;4992887;28;20621;-48
2022/01/29 00:22:43;;;;;;;2.43;1.20;;;1.60;99.90;;;;;;4993254;28;20195;-53
2022/01/29 00:25:09;;;;;;;2.10;1.27;;;1.50;99.90;;;;;;4992888;28;20663;-56
2022/01/29 00:27:36;;;;;;;1.73;0.90;;;1.50;99.90;;;;;;4992974;28;20683;-49
2022/01/29 00:30:08;;;;;;;2.23;1.10;;;1.50;99.90;;;;;;4993276;28;20187;-52
2022/01/29 00:32:34;;;;;;;3.00;1.30;;;1.50;99.90;;;;;;4992604;28;20191;-52
2022/01/29 00:35:00;;;;;;;2.73;1.40;;;1.50;99.90;;;;;;4992740;28;20186;-51
2022/01/29 00:37:26;;;;;;;1.87;1.10;;;1.50;99.90;;;;;;4992457;28;20203;-54
2022/01/29 00:39:52;;;;;;;2.07;1.30;;;1.50;99.90;;;;;;4992518;28;20619;-52
2022/01/29 00:42:18;;;;;;;3.17;1.30;;;1.50;99.90;;;;;;5008265;28;20184;-54
2022/01/29 00:44:44;;;;;;;3.23;1.40;;;1.50;99.90;;;;;;5012480;28;20190;-57
2022/01/29 00:47:10;;;;;;;2.37;1.40;;;1.40;99.90;;;;;;5011923;28;20297;-63
2022/01/29 00:49:36;;;;;;;2.80;1.23;;;1.40;99.90;;;;;;5012334;28;20271;-54
2022/01/29 00:52:02;;;;;;;3.07;1.27;;;1.40;99.90;;;;;;5012124;28;20210;-53
2022/01/29 00:54:28;;;;;;;3.13;1.33;;;1.30;99.90;;;;;;5011461;28;20773;-56
2022/01/29 00:56:54;;;;;;;2.87;1.30;;;1.30;99.90;;;;;;5012444;28;20335;-56
2022/01/29 00:59:19;;;;;;;5.67;1.10;;;1.20;99.90;;;;;;5010956;28;20194;-57
2022/01/29 01:01:45;;;;;;;2.77;1.50;;;1.20;99.90;;;;;;4994715;28;20181;-55
2022/01/29 01:04:11;;;;;;;5.90;1.70;;;1.20;99.90;;;;;;5011908;28;20195;-63
2022/01/29 01:06:37;;;;;;;2.70;1.50;;;1.20;99.90;;;;;;5012065;28;20196;-55
2022/01/29 01:09:02;;;;;;;2.13;1.10;;;1.10;99.90;;;;;;5011961;28;20221;-54
2022/01/29 01:11:28;;;;;;;2.83;1.40;;;1.10;99.90;;;;;;5011852;28;20181;-55
2022/01/29 01:13:54;;;;;;;2.77;1.10;;;1.10;99.90;;;;;;5003035;28;20191;-55
2022/01/29 01:16:20;;;;;;;1.13;0.80;;;1.10;99.90;;;;;;4992137;28;20197;-56
2022/01/29 01:18:45;;;;;;;2.33;1.20;;;1.10;99.90;;;;;;4992188;28;20190;-59
2022/01/29 01:21:11;;;;;;;1.73;1.10;;;1.10;99.90;;;;;;4992256;28;20187;-60
2022/01/29 01:23:37;;;;;;;4.17;1.40;;;1.00;99.90;;;;;;4992144;28;20194;-57
2022/01/29 01:26:04;;;;;;;2.67;1.30;;;1.00;99.90;;;;;;4991945;28;20190;-56
2022/01/29 01:28:30;;;;;;;3.30;1.87;;;0.90;99.90;;;;;;4974555;28;20220;-55
2022/01/29 01:30:56;;;;;;;3.07;1.63;;;0.90;99.90;;;;;;4992385;28;20199;-58
2022/01/29 01:33:22;;;;;;;2.47;1.33;;;0.90;99.90;;;;;;4991866;28;20569;-56
2022/01/29 01:35:52;;;;;;;2.47;1.60;;;0.80;99.90;;;;;;4992235;28;20191;-56
2022/01/29 01:38:32;;;;;;;2.97;1.30;;;0.80;99.90;;;;;;4974949;28;20202;-55
2022/01/29 01:41:03;;;;;;;2.03;1.37;;;0.80;99.90;;;;;;5004044;28;20213;-52
2022/01/29 01:43:28;;;;;;;4.57;2.00;;;0.80;99.90;;;;;;5011362;28;20217;-59
2022/01/29 01:45:54;;;;;;;3.27;1.80;;;0.80;99.90;;;;;;4994206;28;20235;-55
2022/01/29 01:48:20;;;;;;;3.73;2.00;;;0.70;99.90;;;;;;4993663;28;20216;-54
2022/01/29 01:50:47;;;;;;;2.93;1.20;;;0.70;99.90;;;;;;5011514;28;20284;-59
2022/01/29 01:53:13;;;;;;;2.67;1.70;;;0.70;99.90;;;;;;5011676;28;20190;-53
2022/01/29 01:55:39;;;;;;;3.13;1.50;;;0.70;99.90;;;;;;5011228;28;20240;-54
2022/01/29 01:58:05;;;;;;;4.13;1.90;;;0.70;99.90;;;;;;5011803;28;20275;-55
2022/01/29 02:00:31;;;;;;;4.00;1.93;;;0.70;99.90;;;;;;5011233;28;20268;-56
2022/01/29 02:02:57;;;;;;;4.07;1.80;;;0.70;99.90;;;;;;5011530;28;20656;-58
2022/01/29 02:05:23;;;;;;;2.47;1.40;;;0.70;99.90;;;;;;5011097;28;20216;-55
2022/01/29 02:07:49;;;;;;;3.90;1.73;;;0.70;99.90;;;;;;5011706;28;20693;-55
2022/01/29 02:10:17;;;;;;;3.40;1.60;;;0.70;99.90;;;;;;5011315;28;20267;-55
2022/01/29 02:12:51;;;;;;;3.20;1.90;;;0.70;99.90;;;;;;4997501;28;20325;-55
2022/01/29 02:15:19;;;;;;;4.00;1.43;;;0.70;99.90;;;;;;4975781;28;20179;-55
2022/01/29 02:17:46;;;;;;;3.87;2.07;;;0.70;99.90;;;;;;4975919;28;20182;-55
2022/01/29 02:20:29;;;;;;;5.50;2.57;;;0.70;99.90;;;;;;4959071;28;20296;-56
2022/01/29 02:22:56;;;;;;;3.60;1.73;;;0.60;99.90;;;;;;4975901;28;20195;-55
2022/01/29 02:25:38;;;;;;;4.00;2.90;;;0.60;99.90;;;;;;4975450;28;20188;-55
2022/01/29 02:28:10;;;;;;;4.03;2.20;;;0.60;99.90;;;;;;4975728;28;20209;-53
2022/01/29 02:30:39;;;;;;;3.83;2.43;;;0.60;99.90;;;;;;4975298;28;20650;-56
2022/01/29 02:33:09;;;;;;;3.73;2.47;;;0.60;99.90;;;;;;4975817;28;20233;-55
2022/01/29 02:35:41;;;;;;;5.80;2.70;;;0.50;99.90;;;;;;4957917;28;20497;-52
2022/01/29 02:38:07;;;;;;;6.93;3.20;;;0.50;99.90;;;;;;4975600;28;20186;-56
2022/01/29 02:40:43;;;;;;;5.40;2.60;;;0.40;99.90;;;;;;4992047;28;20272;-56
2022/01/29 02:43:15;;;;;;;4.97;2.43;;;0.30;99.90;;;;;;5014644;28;20711;-57
2022/01/29 02:45:42;;;;;;;3.53;2.10;;;0.30;99.90;;;;;;5014445;28;20188;-55
2022/01/29 02:48:09;;;;;;;4.07;2.43;;;0.20;99.90;;;;;;5014223;28;20219;-54
2022/01/29 02:50:35;;;;;;;3.97;2.27;;;0.20;99.90;;;;;;5013924;28;20186;-56
2022/01/29 02:53:01;;;;;;;4.10;2.03;;;0.20;99.90;;;;;;5014419;28;20568;-56
2022/01/29 02:55:28;;;;;;;3.37;1.90;;;0.30;99.90;;;;;;5013673;28;20298;-57
2022/01/29 02:57:54;;;;;;;2.70;1.70;;;0.30;99.90;;;;;;5014305;28;20322;-57
2022/01/29 03:00:20;;;;;;;3.83;1.90;;;0.30;99.90;;;;;;5013882;28;20654;-56
2022/01/29 03:02:46;;;;;;;4.90;2.10;;;0.30;99.90;;;;;;5014362;28;20188;-55
2022/01/29 03:05:11;;;;;;;2.07;1.40;;;0.30;99.90;;;;;;5014027;28;20200;-55
2022/01/29 03:07:38;;;;;;;4.10;1.60;;;0.30;99.90;;;;;;4996166;28;20281;-56
2022/01/29 03:10:05;;;;;;;4.70;1.30;;;0.30;99.90;;;;;;5013902;28;20182;-56
2022/01/29 03:12:31;;;;;;;3.10;1.43;;;0.30;99.90;;;;;;5013525;28;20644;-55
2022/01/29 03:14:57;;;;;;;3.20;1.40;;;0.30;99.90;;;;;;4996301;28;20279;-56
2022/01/29 03:17:23;;;;;;;2.17;1.23;;;0.30;99.90;;;;;;4976271;28;20226;-55
2022/01/29 03:19:52;;;;;;;3.10;1.20;;;0.30;99.90;;;;;;4976717;28;20275;-57
2022/01/29 03:22:18;;;;;;;1.60;1.10;;;0.30;99.90;;;;;;4975416;28;20565;-53
2022/01/29 03:24:44;;;;;;;3.97;1.23;;;0.30;99.90;;;;;;4994370;28;20181;-55
2022/01/29 03:27:10;;;;;;;3.63;1.47;;;0.30;99.90;;;;;;4993737;28;20207;-55
2022/01/29 03:29:36;;;;;;;9.80;0.90;;;0.30;99.90;;;;;;4993765;28;20182;-54
2022/01/29 03:32:03;;;;;;;3.50;1.50;;;0.20;99.90;;;;;;4993841;28;20185;-56
2022/01/29 03:34:29;;;;;;;2.63;1.43;;;0.30;99.90;;;;;;4993520;28;20573;-56
2022/01/29 03:36:56;;;;;;;1.47;0.70;;;0.30;99.90;;;;;;4976428;28;20180;-55
2022/01/29 03:39:23;;;;;;;3.00;1.63;;;0.30;99.90;;;;;;4993857;28;20242;-57
2022/01/29 03:41:50;;;;;;;2.53;1.37;;;0.30;99.90;;;;;;4998774;28;20189;-55
2022/01/29 03:44:16;;;;;;;1.13;0.73;;;0.20;99.90;;;;;;4995698;28;20710;-58
2022/01/29 03:46:41;;;;;;;2.67;1.17;;;0.30;99.90;;;;;;5013006;28;20540;-56
2022/01/29 03:49:07;;;;;;;1.37;0.97;;;0.20;99.90;;;;;;4979359;28;20269;-56
2022/01/29 03:51:33;;;;;;;2.60;1.50;;;0.20;99.90;;;;;;5012310;28;20188;-54
2022/01/29 03:53:59;;;;;;;6.07;1.63;;;0.20;99.90;;;;;;5013210;28;20183;-55
2022/01/29 03:56:25;;;;;;;4.70;1.40;;;0.20;99.90;;;;;;5013211;28;20648;-57
2022/01/29 03:58:50;;;;;;;2.10;1.30;;;0.10;99.90;;;;;;5013248;28;20213;-57
2022/01/29 04:01:16;;;;;;;1.50;1.00;;;0.10;99.90;;;;;;5013157;28;20184;-55
2022/01/29 04:03:42;;;;;;;3.23;1.23;;;0.10;99.90;;;;;;5012773;28;20194;-53
2022/01/29 04:06:08;;;;;;;4.70;1.43;;;0.10;99.90;;;;;;5012726;28;20236;-53
2022/01/29 04:08:40;;;;;;;3.17;1.50;;;0.10;99.90;;;;;;5012570;28;20701;-51
2022/01/29 04:11:08;;;;;;;3.53;1.30;;;0.10;99.90;;;;;;5012616;28;20192;-55
2022/01/29 04:13:34;;;;;;;2.47;1.40;;;0.20;99.90;;;;;;5006416;28;20272;-56
2022/01/29 04:15:59;;;;;;;2.87;1.77;;;0.30;99.90;;;;;;4993308;28;20292;-55
2022/01/29 04:18:25;;;;;;;3.87;1.93;;;0.30;99.90;;;;;;4992603;28;20195;-52
2022/01/29 04:20:51;;;;;;;2.13;1.13;;;0.30;99.90;;;;;;4993043;28;20188;-55
2022/01/29 04:23:17;;;;;;;3.03;1.00;;;0.30;99.90;;;;;;4993119;28;20709;-55
2022/01/29 04:25:43;;;;;;;2.23;1.10;;;0.30;99.90;;;;;;4992798;28;20182;-54
2022/01/29 04:28:11;;;;;;;2.20;1.30;;;0.30;99.90;;;;;;4959446;28;20216;-52
2022/01/29 04:30:52;;;;;;;2.73;1.33;;;0.30;99.90;;;;;;4992684;28;20225;-53
2022/01/29 04:35:43;;;;;;;5.60;1.40;;;0.30;99.90;;;;;;4992324;28;20646;-55
2022/01/29 04:38:09;;;;;;;3.67;1.67;;;0.30;99.90;;;;;;4992773;28;20176;-53
2022/01/29 04:40:35;;;;;;;5.37;1.80;;;0.30;99.90;;;;;;4985364;28;20182;-55
2022/01/29 04:43:05;;;;;;;9.97;1.60;;;0.30;99.90;;;;;;5006127;28;20183;-55
2022/01/29 04:45:31;;;;;;;3.63;1.53;;;0.30;99.90;;;;;;5012030;28;20172;-54
2022/01/29 04:47:57;;;;;;;2.73;1.60;;;0.30;99.90;;;;;;5012037;28;20382;-55
2022/01/29 04:50:23;;;;;;;4.27;1.70;;;0.30;99.90;;;;;;5012376;28;20185;-62
2022/01/29 04:52:49;;;;;;;3.63;1.90;;;0.30;99.90;;;;;;5012272;28;20564;-58
2022/01/29 04:55:15;;;;;;;3.27;1.40;;;0.30;99.90;;;;;;5012297;28;20233;-57
2022/01/29 04:57:41;;;;;;;3.27;1.50;;;0.40;99.90;;;;;;4994957;28;20183;-55
2022/01/29 05:00:12;;;;;;;3.00;1.70;;;0.40;99.90;;;;;;5012071;28;20176;-55
2022/01/29 05:02:38;;;;;;;2.73;2.00;;;0.40;99.90;;;;;;4993957;28;20196;-55
2022/01/29 05:05:05;;;;;;;3.03;1.40;;;0.40;99.90;;;;;;5012291;28;20191;-55
2022/01/29 05:07:31;;;;;;;3.13;1.43;;;0.40;99.90;;;;;;5011385;28;20684;-56
2022/01/29 05:09:57;;;;;;;5.77;1.63;;;0.40;99.90;;;;;;5011762;28;20212;-56
2022/01/29 05:12:31;;;;;;;2.83;1.60;;;0.40;99.90;;;;;;4994282;28;20196;-56
2022/01/29 05:28:04;;;;;;;2.80;1.60;;;0.40;99.90;;;;;;4991801;28;20308;-57
2022/01/29 05:30:30;;;;;;;3.33;1.67;;;0.40;99.90;;;;;;4991876;28;20208;-57
2022/01/29 05:32:56;;;;;;;3.40;1.57;;;0.40;99.90;;;;;;4992136;28;20277;-56
2022/01/29 05:35:21;;;;;;;3.97;1.60;;;0.50;99.90;;;;;;4992171;28;20170;-56
2022/01/29 05:37:50;;;;;;;3.50;1.97;;;0.50;99.90;;;;;;4991705;28;20195;-57
2022/01/29 05:40:16;;;;;;;2.60;1.20;;;0.50;99.90;;;;;;4971150;28;20197;-56
2022/01/29 05:42:42;;;;;;;3.47;1.50;;;0.50;99.90;;;;;;5010035;28;20172;-55
2022/01/29 05:45:08;;;;;;;3.97;1.60;;;0.50;99.90;;;;;;5011150;28;20190;-55
2022/01/29 05:47:35;;;;;;;4.37;1.57;;;0.50;99.90;;;;;;5014848;28;20298;-55
2022/01/29 05:50:02;;;;;;;2.87;1.30;;;0.50;99.90;;;;;;5015542;28;20586;-56
2022/01/29 05:52:28;;;;;;;4.87;1.60;;;0.50;99.90;;;;;;5014827;28;20192;-55
2022/01/29 05:54:53;;;;;;;2.10;0.90;;;0.50;99.90;;;;;;5014784;28;20766;-56
2022/01/29 05:57:19;;;;;;;2.37;1.20;;;0.40;99.90;;;;;;4997562;28;20529;-54
2022/01/29 05:59:45;;;;;;;3.87;1.80;;;0.50;99.90;;;;;;5014888;28;20211;-55
2022/01/29 06:02:11;;;;;;;3.87;1.50;;;0.40;99.90;;;;;;5014854;28;20641;-56
2022/01/29 06:04:37;;;;;;;2.80;1.47;;;0.40;99.90;;;;;;5015030;28;20386;-53
2022/01/29 06:07:03;;;;;;;6.07;1.73;;;0.40;99.90;;;;;;5014931;28;20185;-54
2022/01/29 06:09:29;;;;;;;3.60;1.70;;;0.30;99.90;;;;;;4997162;28;20648;-56
2022/01/29 06:11:54;;;;;;;4.97;2.17;;;0.30;99.90;;;;;;4997130;28;20184;-56
2022/01/29 06:14:20;;;;;;;3.23;1.53;;;0.30;99.90;;;;;;4984878;28;20277;-56
2022/01/29 06:16:46;;;;;;;6.43;2.23;;;0.30;99.90;;;;;;4977424;28;20189;-55
2022/01/29 06:19:12;;;;;;;2.73;1.83;;;0.30;99.90;;;;;;4995227;28;20193;-57
2022/01/29 06:21:37;;;;;;;6.60;2.50;;;0.30;99.90;;;;;;4977232;28;20234;-53
2022/01/29 06:24:03;;;;;;;3.83;1.63;;;0.20;99.90;;;;;;4995325;28;20271;-56
2022/01/29 06:26:29;;;;;;;6.13;2.37;;;0.20;99.90;;;;;;4977083;28;20545;-59
2022/01/29 06:28:55;;;;;;;4.63;2.40;;;0.10;99.90;;;;;;4994975;28;20350;-57
2022/01/29 06:31:21;;;;;;;6.40;2.20;;;0.00;99.90;;;;;;4977404;28;20184;-58
2022/01/29 06:33:46;;;;;;;6.20;1.70;;;-0.10;99.90;;;;;;4977096;28;20182;-56
2022/01/29 06:36:13;;;;;;;7.20;2.83;;;-0.10;99.90;;;;;;4977219;28;20525;-57
2022/01/29 06:38:38;;;;;;;7.70;2.50;;;-0.10;99.90;;;;;;4994400;28;20199;-56
2022/01/29 06:41:04;;;;;;;8.83;2.17;;;-0.20;99.90;;;;;;4999899;28;20186;-53
2022/01/29 06:43:30;;;;;;;4.57;2.17;;;-0.20;99.90;;;;;;5013897;28;20266;-66
2022/01/29 06:45:56;;;;;;;5.47;3.00;;;-0.20;99.90;;;;;;5014300;28;20194;-55
2022/01/29 06:48:22;;;;;;;6.47;2.57;;;-0.30;99.90;;;;;;5013705;28;20540;-56
2022/01/29 06:50:48;;;;;;;10.80;2.47;;;-0.30;99.90;;;;;;4995743;28;20286;-58
2022/01/29 06:53:13;;;;;;;6.60;3.13;;;-0.30;99.90;;;;;;4996016;28;20210;-54
2022/01/29 06:55:40;;;;;;;6.13;1.93;;;-0.30;99.90;;;;;;5013422;28;20274;-55
2022/01/29 06:58:05;;;;;;;6.50;2.50;;;-0.30;99.90;;;;;;5013321;28;20537;-57
2022/01/29 07:00:31;;;;;;;3.73;1.87;;;-0.20;99.90;;;;;;5013292;28;20259;-62
2022/01/29 07:02:57;;;;;;;7.60;2.40;;;-0.20;99.90;;;;;;5013242;28;20179;-57
2022/01/29 07:05:23;;;;;;;5.37;2.70;;;-0.20;99.90;;;;;;4996166;28;20211;-56
2022/01/29 07:07:49;;;;;;;5.00;2.50;;;-0.20;99.90;;;;;;4979249;28;20315;-58
2022/01/29 07:10:16;;;;;;;4.40;2.57;;;-0.20;99.90;;;;;;5014095;28;20179;-55
2022/01/29 07:12:42;;;;;;;4.17;2.10;;;-0.20;99.90;;;;;;5013155;28;20320;-57
2022/01/29 07:15:09;;;;;;;10.27;3.43;;;-0.20;99.90;;;;;;4994520;28;20212;-52
2022/01/29 07:17:36;;;;;;;9.63;3.13;;;-0.20;99.90;;;;;;4993826;28;20195;-60
2022/01/29 07:20:03;;;;;;;5.50;1.83;;;-0.20;99.90;;;;;;4993790;28;20232;-58
2022/01/29 07:22:29;;;;;;;6.57;1.80;;;-0.20;99.90;;;;;;4994190;28;20244;-56
2022/01/29 07:24:55;;;;;;;5.63;2.40;;;-0.20;99.90;;;;;;4993664;28;20188;-56
2022/01/29 07:27:20;;;;;;;7.00;2.20;;;-0.20;99.90;;;;;;4993647;28;20221;-53
2022/01/29 07:29:46;;;;;;;10.17;2.73;;;-0.10;99.90;;;;;;4992820;28;20708;-55
2022/01/29 07:32:12;;;;;;;9.63;2.90;;;-0.10;99.90;;;;;;4993580;28;20185;-53
2022/01/29 07:34:38;;;;;;;5.10;1.50;;;-0.10;99.90;;;;;;4993046;28;20260;-55
2022/01/29 07:37:04;;;;;;;8.10;2.13;;;-0.10;99.90;;;;;;4993822;28;20339;-54
2022/01/29 07:39:31;;;;;;;13.73;2.47;;;0.00;99.90;;;;;;4993536;28;20344;-54
2022/01/29 07:41:57;;;;;;;4.67;1.60;;;0.10;99.90;;;;;;4949724;28;20181;-57
2022/01/29 07:44:23;;;;;;;6.90;2.10;;;0.10;99.90;;;;;;4974118;28;20189;-55
2022/01/29 07:46:49;;;;;;;3.93;1.83;;;0.20;99.90;;;;;;4973651;28;20228;-56
2022/01/29 07:49:15;;;;;;;8.77;2.27;;;0.20;99.90;;;;;;4973995;28;20220;-58
2022/01/29 07:51:41;;;;;;;10.43;3.30;;;0.10;99.90;;;;;;4973480;28;20173;-58
2022/01/29 07:54:07;;;;;;;8.77;3.13;;;0.10;99.90;;;;;;4954914;28;20182;-53
2022/01/29 07:56:33;;;;;;;11.00;3.07;;;0.10;99.90;;;;;;4971650;28;20186;-52
2022/01/29 07:59:00;;;;;;;5.97;2.10;;;0.10;99.90;;;;;;4973278;28;20189;-56
2022/01/29 08:01:26;;;;;;;4.03;1.57;;;0.20;99.90;;;;;;4973822;28;20184;-56
2022/01/29 08:03:52;;;;;;;7.03;2.10;;;0.10;99.90;;;;;;4955111;28;20186;-54
2022/01/29 08:06:22;;;;;;;6.47;2.40;;;0.10;99.90;;;;;;4973286;28;20189;-56
2022/01/29 08:08:48;;;;;;;5.63;2.17;;;0.10;99.90;;;;;;4955317;28;20225;-56
2022/01/29 08:11:14;;;;;;;12.10;2.50;;;0.10;99.90;;;;;;4973614;28;20185;-54
2022/01/29 08:13:40;;;;;;;4.87;1.80;;;0.00;99.90;;;;;;4962014;28;20268;-54
2022/01/29 08:16:06;;;;;;;12.73;3.53;;;-0.10;99.90;;;;;;4992860;28;20184;-59
2022/01/29 08:18:32;;;;;;;3.73;1.80;;;0.10;99.90;;;;;;4974826;28;20539;-53
2022/01/29 08:20:58;;;;;;;15.23;2.40;;;0.00;99.90;;;;;;4992098;28;20264;-56
2022/01/29 08:23:24;;;;;;;9.43;2.30;;;-0.10;99.90;;;;;;4992613;28;20184;-59
2022/01/29 08:25:50;;;;;;;5.67;2.07;;;-0.10;99.90;;;;;;4992141;28;20185;-56
2022/01/29 08:28:16;;;;;;;6.80;1.80;;;-0.10;99.90;;;;;;4991863;28;20660;-57
2022/01/29 08:30:42;;;;;;;5.37;1.87;;;0.00;99.90;;;;;;4974576;28;20675;-57
2022/01/29 08:33:08;;;;;;;5.80;1.67;;;0.30;99.90;;;;;;4991694;28;20576;-55
2022/01/29 08:35:34;;;;;;;8.03;2.07;;;2.10;99.90;;;;;;4992472;28;20190;-56
2022/01/29 08:38:00;;;;;;;10.30;2.10;;;1.90;99.90;;;;;;4974364;28;20190;-58
2022/01/29 08:40:26;;;;;;;4.17;1.50;;;1.40;99.90;;;;;;4984968;28;20555;-55
2022/01/29 08:42:52;;;;;;;4.67;1.87;;;1.10;99.90;;;;;;4972224;28;20206;-55
2022/01/29 08:45:19;;;;;;;6.40;1.60;;;0.80;99.90;;;;;;4972449;28;20181;-56
2022/01/29 08:47:45;;;;;;;4.43;1.60;;;0.60;99.90;;;;;;4972780;28;20214;-58
2022/01/29 08:50:12;;;;;;;2.80;1.60;;;0.40;99.90;;;;;;4972866;28;20256;-55
2022/01/29 08:52:38;;;;;;;9.80;1.80;;;0.50;99.90;;;;;;4972063;28;20189;-67
2022/01/29 08:55:06;;;;;;;3.73;1.13;;;0.40;99.90;;;;;;4981222;28;20307;-56
2022/01/29 08:57:32;;;;;;;6.43;1.83;;;0.40;99.90;;;;;;4991277;28;20246;-56
2022/01/29 08:59:59;;;;;;;4.63;1.90;;;0.40;99.90;;;;;;4991197;28;20181;-58
2022/01/29 09:02:25;;;;;;;11.07;1.80;;;0.50;99.90;;;;;;4991704;28;20234;-55
2022/01/29 09:04:52;;;;;;;3.93;1.20;;;0.60;99.90;;;;;;4991138;28;20181;-56
2022/01/29 09:07:18;;;;;;;7.67;1.30;;;0.60;99.90;;;;;;4991360;28;20177;-63
2022/01/29 09:09:45;;;;;;;4.97;1.53;;;0.60;99.90;;;;;;4990728;28;20195;-63
2022/01/29 09:12:11;;;;;;;3.03;1.30;;;0.50;99.90;;;;;;4957397;28;20237;-55
2022/01/29 09:14:37;;;;;;;5.33;1.60;;;0.50;99.90;;;;;;5005557;28;20250;-59
2022/01/29 09:17:04;;;;;;;6.13;1.63;;;0.50;99.90;;;;;;5011013;28;20180;-55
2022/01/29 09:19:30;;;;;;;4.53;1.70;;;0.50;99.90;;;;;;5010567;28;20177;-58
2022/01/29 09:21:55;;;;;;;3.30;1.40;;;0.60;99.90;;;;;;5009392;28;20277;-56
2022/01/29 09:24:21;;;;;;;7.90;1.83;;;0.80;99.90;;;;;;5010373;28;20257;-55
2022/01/29 09:26:47;;;;;;;4.53;2.10;;;0.80;99.90;;;;;;5010193;28;20745;-60
2022/01/29 09:29:13;;;;;;;7.57;1.53;;;0.90;99.90;;;;;;5009913;28;20280;-63
2022/01/29 09:31:38;;;;;;;5.30;1.20;;;1.10;99.90;;;;;;5010392;28;20551;-65
2022/01/29 09:34:04;;;;;;;12.93;2.03;;;1.30;99.90;;;;;;5009826;28;20264;-62
2022/01/29 09:36:30;;;;;;;3.73;1.60;;;1.50;99.90;;;;;;5009991;28;20209;-61
2022/01/29 09:38:56;;;;;;;3.33;1.17;;;1.70;98.90;;;;;;5009496;28;20187;-61
2022/01/29 09:41:26;;;;;;;2.70;1.13;;;1.70;98.70;;;;;;4995108;28;20209;-60
2022/01/29 09:43:53;;;;;;;6.57;1.60;;;1.80;98.50;;;;;;4973581;28;20523;-61
2022/01/29 09:46:19;;;;;;;9.10;1.90;;;1.70;98.60;;;;;;4991129;28;20276;-60
2022/01/29 09:48:45;;;;;;;3.97;1.40;;;1.90;98.60;;;;;;4957574;28;20638;-60
2022/01/29 09:51:14;;;;;;;3.60;1.70;;;1.90;98.20;;;;;;4991313;28;20238;-66
2022/01/29 09:53:43;;;;;;;2.17;1.20;;;1.80;97.80;;;;;;4990904;28;20262;-57
2022/01/29 09:56:09;;;;;;;6.93;1.70;;;1.70;97.80;;;;;;4991193;28;20573;-60
2022/01/29 09:58:35;;;;;;;4.20;1.53;;;1.70;98.20;;;;;;4991389;28;20200;-60
2022/01/29 10:01:00;;;;;;;7.97;1.90;;;1.40;98.20;;;;;;4990360;28;20202;-60
2022/01/29 10:03:27;;;;;;;2.90;1.20;;;1.40;98.60;;;;;;4991385;28;20571;-57
2022/01/29 10:05:54;;;;;;;4.80;1.50;;;1.20;97.70;;;;;;4990777;28;20242;-60
2022/01/29 10:08:21;;;;;;;4.07;1.10;;;1.00;98.00;;;;;;4991128;28;20292;-62
2022/01/29 10:10:56;;;;;;;2.53;1.00;;;1.00;97.90;;;;;;4990650;28;20179;-60
2022/01/29 10:13:36;;;;;;;5.37;1.43;;;1.00;97.60;;;;;;4996041;28;20212;-60
2022/01/29 10:16:20;;;;;;;3.47;1.43;;;0.90;97.10;;;;;;5010231;28;20214;-61
2022/01/29 10:18:58;;;;;;;7.13;1.43;;;0.80;97.40;;;;;;5010258;28;20196;-61
2022/01/29 10:21:26;;;;;;;6.50;1.30;;;0.80;97.70;;;;;;4992917;28;20216;-60
2022/01/29 10:24:15;;;;;;;2.57;1.17;;;1.00;97.40;;;;;;5010390;28;20193;-60
2022/01/29 10:26:46;;;;;;;5.40;1.60;;;1.00;96.70;;;;;;5010502;28;20248;-59
2022/01/29 10:29:21;;;;;;;3.23;1.10;;;1.10;97.00;;;;;;5010393;28;20274;-60
2022/01/29 10:31:49;;;;;;;5.43;1.60;;;1.10;97.10;;;;;;5010369;28;20184;-60
2022/01/29 10:34:20;;;;;;;5.33;1.60;;;1.10;97.00;;;;;;5014362;28;20174;-60
2022/01/29 10:37:06;;;;;;;4.47;1.40;;;1.20;97.40;;;;;;5009721;28;20182;-62
2022/01/29 10:39:31;;;;;;;5.43;0.90;;;1.00;95.40;;;;;;5003725;28;20199;-61
2022/01/29 10:41:57;;;;;;;2.50;1.05;;;1.00;94.10;;;;;;4995411;28;20769;-62
2022/01/29 10:44:24;;;;;;;7.50;1.10;;;0.90;93.40;;;;;;4998828;28;20221;-61
2022/01/29 10:46:55;;;;;;;5.70;1.40;;;1.00;94.20;;;;;;5002136;28;20253;-61
2022/01/29 10:49:22;;;;;;;7.67;1.67;;;1.00;93.70;;;;;;5014777;28;20569;-62
2022/01/29 10:51:55;;;;;;;3.70;0.80;;;1.20;93.80;;;;;;5009487;28;20283;-60
2022/01/29 10:54:22;;;;;;;0.67;0.60;;;1.20;92.70;;;;;;5003063;28;20235;-62
2022/01/29 10:56:53;;;;;;;2.00;0.90;;;1.30;92.00;;;;;;4980599;28;20641;-62
2022/01/29 10:59:20;;;;;;;2.03;0.90;;;1.30;92.50;;;;;;4993385;28;20253;-61
2022/01/29 11:01:59;;;;;;;5.07;1.23;;;1.30;92.30;;;;;;4993712;28;20190;-61
2022/01/29 11:04:27;;;;;;;7.27;1.43;;;1.20;92.10;;;;;;4990236;28;20214;-62
2022/01/29 11:06:55;;;;;;;1.67;0.70;;;1.20;92.60;;;;;;5003196;28;20263;-61
2022/01/29 11:09:22;;;;;;;9.03;1.60;;;1.20;91.60;;;;;;4993902;28;20221;-62
2022/01/29 11:11:48;;;;;;;4.13;1.00;;;1.20;92.40;;;;;;4996101;28;20192;-62
2022/01/29 11:14:18;;;;;;;7.90;1.57;;;1.10;91.50;;;;;;5008095;28;20235;-61
2022/01/29 11:16:45;;;;;;;10.07;1.90;;;1.10;91.80;;;;;;5004409;28;20521;-62
2022/01/29 11:19:11;;;;;;;6.30;1.43;;;1.10;92.00;;;;;;4993649;28;20185;-61
2022/01/29 11:21:38;;;;;;;7.53;1.53;;;1.20;92.00;;;;;;4999248;28;20222;-61
2022/01/29 11:24:06;;;;;;;6.00;2.20;;;1.30;92.50;;;;;;4981915;28;20285;-61
2022/01/29 11:26:33;;;;;;;3.70;1.30;;;1.40;91.90;;;;;;4993608;28;20218;-61
2022/01/29 11:29:30;;;;;;;9.73;1.60;;;1.50;91.80;;;;;;4984433;28;20224;-61
2022/01/29 11:32:21;;;;;;;3.47;1.10;;;1.50;91.40;;;;;;4992396;28;20194;-62
2022/01/29 11:34:58;;;;;;;7.60;1.67;;;1.50;91.00;;;;;;5011813;28;20193;-62
2022/01/29 11:37:48;;;;;;;3.43;1.13;;;1.50;90.90;;;;;;4980768;28;20604;-61
2022/01/29 11:40:22;;;;;;;10.70;1.30;;;1.60;90.60;;;;;;4998501;28;20713;-62
2022/01/29 11:43:04;;;;;;;1.40;0.80;;;1.60;90.50;;;;;;4995380;28;20186;-61
2022/01/29 11:45:40;;;;;;;3.93;1.03;;;1.50;90.60;;;;;;4999128;28;20562;-61
2022/01/29 11:48:08;;;;;;;2.77;1.00;;;1.40;90.60;;;;;;5006044;28;20214;-61
2022/01/29 11:50:34;;;;;;;1.67;1.00;;;1.50;91.00;;;;;;5003785;28;20201;-63
2022/01/29 11:53:02;;;;;;;10.40;1.57;;;1.60;90.70;;;;;;4993669;28;20277;-61
2022/01/29 11:55:41;;;;;;;2.07;0.70;;;1.70;90.80;;;;;;4993298;28;20261;-60
2022/01/29 11:58:28;;;;;;;4.97;1.40;;;1.70;89.50;;;;;;4978684;28;20211;-60
2022/01/29 12:00:59;;;;;;;4.27;0.90;;;1.50;89.00;;;;;;4991697;28;20194;-61
2022/01/29 12:03:45;;;;;;;4.53;1.30;;;1.50;89.50;;;;;;4992888;28;20191;-62
2022/01/29 12:06:21;;;;;;;5.17;0.70;;;1.60;90.30;;;;;;4987443;28;20208;-62
2022/01/29 12:09:07;;;;;;;2.67;1.17;;;1.70;89.30;;;;;;4984408;28;20274;-60
2022/01/29 12:11:41;;;;;;;3.07;1.13;;;1.80;89.50;;;;;;4972752;28;20181;-61
2022/01/29 12:14:13;;;;;;;14.53;1.50;;;2.00;89.40;;;;;;4986714;28;20182;-60
2022/01/29 12:16:57;;;;;;;4.80;1.23;;;2.10;89.60;;;;;;4995014;28;20191;-62
2022/01/29 12:19:42;;;;;;;5.93;0.93;;;2.20;89.60;;;;;;4996428;28;20398;-62
2022/01/29 12:22:16;;;;;;;5.03;1.07;;;2.30;88.20;;;;;;4991071;28;20195;-59
2022/01/29 12:24:51;;;;;;;4.63;1.37;;;2.30;87.90;;;;;;4992121;28;20231;-60
2022/01/29 12:27:17;;;;;;;4.13;1.67;;;2.30;87.10;;;;;;4977773;28;20204;-60
2022/01/29 12:29:43;;;;;;;5.30;1.50;;;3.40;86.80;;;;;;4992778;28;20197;-61
2022/01/29 12:32:10;;;;;;;3.57;1.37;;;4.50;82.90;;;;;;4966094;28;20195;-60
2022/01/29 12:34:38;;;;;;;3.23;1.30;;;5.10;77.70;;;;;;4991190;28;20195;-61
2022/01/29 12:37:19;;;;;;;2.37;1.20;;;5.50;75.30;;;;;;4986219;28;20429;-62
2022/01/29 12:39:48;;;;;;;5.97;1.43;;;5.90;73.50;;;;;;4991734;28;20563;-61
2022/01/29 12:44:52;;;;;;;5.93;1.30;;;7.90;67.20;;;;;;4979327;28;20234;-63
2022/01/29 12:47:26;;;;;;;3.17;1.53;;;8.90;65.30;;;;;;4994916;28;20183;-61
2022/01/29 12:49:53;;;;;;;5.10;1.53;;;9.30;61.00;;;;;;4973836;28;20196;-61
2022/01/29 12:52:19;;;;;;;5.47;1.30;;;9.90;59.30;;;;;;4977546;28;20635;-61
2022/01/29 12:54:53;;;;;;;9.20;1.70;;;9.00;57.30;;;;;;4971311;28;20244;-61
2022/01/29 12:57:19;;;;;;;3.00;1.20;;;8.50;59.40;;;;;;4978239;28;20575;-59
2022/01/29 12:59:44;;;;;;;13.03;6.93;;;6.60;60.00;;;;;;4992432;28;20198;-61
2022/01/29 13:02:10;;;;;;;5.87;2.33;;;5.20;65.10;;;;;;4978603;28;20191;-60
2022/01/29 13:04:38;;;;;;;4.73;2.37;;;3.90;68.50;;;;;;4991129;28;20188;-60
2022/01/29 13:07:07;;;;;;;3.73;1.20;;;3.20;71.50;;;;;;4979201;28;20212;-60
2022/01/29 13:09:35;;;;;;;12.27;1.77;;;2.70;73.80;;;;;;4973487;28;20222;-62
2022/01/29 13:12:03;;;;;;;4.23;1.50;;;2.30;75.60;;;;;;4992600;28;20245;-61
2022/01/29 13:14:30;;;;;;;7.47;2.00;;;2.10;77.00;;;;;;4998045;28;20183;-61
2022/01/29 13:17:07;;;;;;;5.40;1.87;;;1.90;78.50;;;;;;4996050;28;20181;-61